Time;durP1;ratioP1;P1;durP2;ratioP2;P2;SDS_P1;SDS_P2;PMS_P1;PMS_P2;Temp;Humidity;BMP_temperature;BMP_pressure;BME280_temperature;BME280_humidity;BME280_pressure;Samples;Min_cycle;Max_cycle;Signal;HPM_P1;HPM_P2
2023/02/05 00:02:14;;;;;;;17.00;10.70;;;4.00;99.90;;;;;;4972054;28;20207;-72
2023/02/05 00:04:39;;;;;;;16.63;10.20;;;4.00;99.90;;;;;;4968380;28;20192;-71
2023/02/05 00:07:05;;;;;;;12.73;9.17;;;4.10;99.90;;;;;;4970497;28;20195;-72
2023/02/05 00:09:31;;;;;;;11.07;10.00;;;4.20;99.90;;;;;;4970040;28;20208;-71
2023/02/05 00:11:57;;;;;;;11.63;8.70;;;4.20;99.90;;;;;;4971565;28;20179;-71
2023/02/05 00:14:24;;;;;;;17.60;10.07;;;4.20;99.90;;;;;;4972216;28;20197;-71
2023/02/05 00:16:49;;;;;;;12.90;9.30;;;4.20;99.90;;;;;;4970120;28;20427;-71
2023/02/05 00:19:15;;;;;;;17.63;9.70;;;4.20;99.90;;;;;;4970497;28;20455;-71
2023/02/05 00:21:41;;;;;;;13.80;10.10;;;4.10;99.90;;;;;;4975532;28;20453;-72
2023/02/05 00:24:06;;;;;;;16.40;10.20;;;4.00;99.90;;;;;;4975093;28;20684;-72
2023/02/05 00:26:32;;;;;;;12.87;9.00;;;4.00;99.90;;;;;;4975414;28;20184;-71
2023/02/05 00:28:58;;;;;;;13.83;8.70;;;4.00;99.90;;;;;;4973573;28;20228;-72
2023/02/05 00:31:24;;;;;;;10.40;7.60;;;4.10;99.90;;;;;;4968663;28;20176;-72
2023/02/05 00:33:51;;;;;;;13.53;8.00;;;4.20;99.90;;;;;;4975012;28;20172;-72
2023/02/05 00:36:19;;;;;;;16.57;8.27;;;4.20;99.90;;;;;;4976166;28;20526;-72
2023/02/05 00:38:45;;;;;;;11.10;6.50;;;4.30;99.90;;;;;;4974679;28;20471;-72
2023/02/05 00:41:12;;;;;;;11.80;7.60;;;4.20;99.90;;;;;;4974567;28;20443;-72
2023/02/05 00:43:38;;;;;;;9.47;7.20;;;4.20;99.90;;;;;;4974828;28;20467;-72
2023/02/05 00:46:04;;;;;;;11.20;9.03;;;4.20;99.90;;;;;;4973532;28;20507;-72
2023/02/05 00:48:30;;;;;;;11.57;8.57;;;4.20;99.90;;;;;;4972042;28;20455;-72
2023/02/05 00:50:55;;;;;;;15.37;8.53;;;4.10;99.90;;;;;;4975035;28;20439;-72
2023/02/05 00:53:22;;;;;;;14.97;7.03;;;4.20;99.90;;;;;;4974994;28;20199;-72
2023/02/05 00:55:48;;;;;;;13.23;7.10;;;4.20;99.90;;;;;;4975111;28;20255;-72
2023/02/05 00:58:14;;;;;;;12.23;6.97;;;4.20;99.90;;;;;;4973916;28;20470;-72
2023/02/05 01:00:40;;;;;;;9.83;7.47;;;4.20;99.90;;;;;;4975007;28;20238;-72
2023/02/05 01:03:05;;;;;;;8.37;7.20;;;4.30;99.90;;;;;;4975766;28;20993;-72
2023/02/05 01:05:33;;;;;;;12.57;7.63;;;4.30;99.90;;;;;;4973293;28;20715;-72
2023/02/05 01:07:58;;;;;;;9.57;7.13;;;4.30;99.90;;;;;;4974662;28;20232;-72
2023/02/05 01:10:24;;;;;;;11.90;8.57;;;4.20;99.90;;;;;;4973481;28;20467;-72
2023/02/05 01:12:50;;;;;;;13.77;8.67;;;4.10;99.90;;;;;;4974902;28;20215;-72
2023/02/05 01:15:16;;;;;;;18.43;7.00;;;4.10;99.90;;;;;;4975580;28;20192;-72
2023/02/05 01:17:42;;;;;;;15.83;7.87;;;4.00;99.90;;;;;;4973765;28;20191;-72
2023/02/05 01:20:09;;;;;;;12.90;7.03;;;4.00;99.90;;;;;;4974549;28;20829;-72
2023/02/05 01:22:35;;;;;;;10.70;7.30;;;4.00;99.90;;;;;;4973953;28;20274;-72
2023/02/05 01:25:00;;;;;;;14.27;8.10;;;3.90;99.90;;;;;;4975171;28;20439;-72
2023/02/05 01:27:26;;;;;;;14.87;8.03;;;4.00;99.90;;;;;;4974491;28;20188;-72
2023/02/05 01:29:51;;;;;;;11.07;7.87;;;4.00;99.90;;;;;;4972763;28;20204;-72
2023/02/05 01:32:18;;;;;;;13.57;8.47;;;3.90;99.90;;;;;;4970572;28;20225;-72
2023/02/05 01:34:44;;;;;;;11.00;7.60;;;3.90;99.90;;;;;;4972777;28;20623;-72
2023/02/05 01:37:10;;;;;;;9.90;7.83;;;3.90;99.90;;;;;;4975960;28;20443;-72
2023/02/05 01:39:36;;;;;;;12.53;8.37;;;3.80;99.90;;;;;;4973979;28;20841;-73
2023/02/05 01:42:03;;;;;;;13.80;8.03;;;3.80;99.90;;;;;;4973472;28;20204;-72
2023/02/05 01:44:29;;;;;;;10.47;7.30;;;3.80;99.90;;;;;;4975661;28;20451;-72
2023/02/05 01:46:55;;;;;;;11.57;7.03;;;3.80;99.90;;;;;;4970119;28;20477;-72
2023/02/05 01:49:30;;;;;;;11.13;9.63;;;3.90;99.90;;;;;;4970112;28;20574;-72
2023/02/05 01:51:59;;;;;;;14.40;6.90;;;3.90;99.90;;;;;;4976106;28;20438;-72
2023/02/05 01:54:28;;;;;;;12.23;8.43;;;3.90;99.90;;;;;;4972637;28;21186;-72
2023/02/05 01:57:00;;;;;;;9.43;7.00;;;3.90;99.90;;;;;;4973740;28;20953;-72
2023/02/05 01:59:28;;;;;;;15.60;8.20;;;3.90;99.90;;;;;;4973963;28;20459;-72
2023/02/05 02:01:54;;;;;;;11.67;8.60;;;3.90;99.90;;;;;;4972180;28;20502;-71
2023/02/05 02:04:33;;;;;;;15.63;8.27;;;3.80;99.90;;;;;;4974735;28;20443;-72
2023/02/05 02:07:01;;;;;;;9.50;6.83;;;3.80;99.90;;;;;;4973557;28;20447;-72
2023/02/05 02:09:26;;;;;;;9.83;6.63;;;3.80;99.90;;;;;;4974105;28;20470;-73
2023/02/05 02:11:53;;;;;;;9.70;7.23;;;3.80;99.90;;;;;;4973150;28;20443;-73
2023/02/05 02:14:19;;;;;;;9.80;7.03;;;3.80;99.90;;;;;;4973930;28;20184;-73
2023/02/05 02:16:45;;;;;;;17.33;8.60;;;3.80;99.90;;;;;;4973387;28;20449;-72
2023/02/05 02:19:31;;;;;;;15.13;7.50;;;3.80;99.90;;;;;;4971927;28;20550;-72
2023/02/05 02:22:06;;;;;;;16.80;9.30;;;3.80;99.90;;;;;;4971942;28;20467;-72
2023/02/05 02:24:52;;;;;;;12.70;8.03;;;3.80;99.90;;;;;;4972863;28;20442;-72
2023/02/05 02:27:20;;;;;;;12.80;7.67;;;3.80;99.90;;;;;;4972205;28;20533;-72
2023/02/05 02:30:11;;;;;;;11.83;7.93;;;3.80;99.90;;;;;;4972583;28;20482;-72
2023/02/05 02:32:47;;;;;;;10.20;8.17;;;3.70;99.90;;;;;;4973773;28;20458;-72
2023/02/05 02:35:26;;;;;;;16.27;8.13;;;3.70;99.90;;;;;;4973293;28;20447;-72
2023/02/05 02:38:02;;;;;;;15.33;7.73;;;3.70;99.90;;;;;;4971505;28;20530;-72
2023/02/05 02:40:42;;;;;;;13.93;8.87;;;3.70;99.90;;;;;;4972648;28;20534;-72
2023/02/05 02:43:25;;;;;;;14.87;7.93;;;3.70;99.90;;;;;;4965789;28;20977;-72
2023/02/05 02:46:03;;;;;;;10.33;7.47;;;3.80;99.90;;;;;;4971426;28;20933;-72
2023/02/05 02:48:31;;;;;;;15.80;7.60;;;3.70;99.90;;;;;;4972279;28;20463;-72
2023/02/05 02:50:58;;;;;;;14.70;8.17;;;3.70;99.90;;;;;;4972076;28;20443;-72
2023/02/05 02:53:35;;;;;;;10.40;8.13;;;3.70;99.90;;;;;;4972862;28;20457;-72
2023/02/05 02:56:03;;;;;;;12.63;8.10;;;3.70;99.90;;;;;;4970308;28;20829;-72
2023/02/05 02:58:38;;;;;;;8.80;6.43;;;3.70;99.90;;;;;;4968577;28;20499;-72
2023/02/05 03:01:07;;;;;;;12.23;7.30;;;3.70;99.90;;;;;;4973616;28;20439;-72
2023/02/05 03:03:37;;;;;;;13.53;8.03;;;3.80;99.90;;;;;;4972095;28;20534;-72
2023/02/05 03:06:05;;;;;;;14.83;7.30;;;3.90;99.90;;;;;;4972754;28;20435;-72
2023/02/05 03:08:44;;;;;;;12.00;7.57;;;3.90;99.90;;;;;;4970837;28;20454;-72
2023/02/05 03:11:13;;;;;;;14.03;7.23;;;3.80;99.90;;;;;;4971789;28;20521;-72
2023/02/05 03:13:39;;;;;;;9.20;6.57;;;3.70;99.90;;;;;;4971801;28;20454;-72
2023/02/05 03:16:05;;;;;;;13.37;8.07;;;3.70;99.90;;;;;;4972397;28;20475;-72
2023/02/05 03:18:30;;;;;;;11.77;7.57;;;3.70;99.90;;;;;;4972247;28;20462;-72
2023/02/05 03:21:01;;;;;;;11.20;7.13;;;3.70;99.90;;;;;;4972277;28;20443;-72
2023/02/05 03:23:27;;;;;;;10.10;6.40;;;3.80;99.90;;;;;;4972385;28;20208;-72
2023/02/05 03:25:53;;;;;;;7.90;6.57;;;3.80;99.90;;;;;;4970266;28;20451;-72
2023/02/05 03:28:19;;;;;;;16.20;7.57;;;3.90;99.90;;;;;;4971019;28;20230;-72
2023/02/05 03:31:00;;;;;;;11.23;7.93;;;3.80;99.90;;;;;;4972349;28;20183;-72
2023/02/05 03:33:50;;;;;;;8.40;7.40;;;3.80;99.90;;;;;;4973673;28;20180;-72
2023/02/05 03:36:24;;;;;;;12.17;8.30;;;3.70;99.90;;;;;;4969772;28;20431;-72
2023/02/05 03:39:10;;;;;;;12.90;6.93;;;3.80;99.90;;;;;;4970670;28;20474;-72
2023/02/05 03:41:56;;;;;;;14.17;8.50;;;3.70;99.90;;;;;;4969480;28;20448;-72
2023/02/05 03:44:38;;;;;;;7.37;6.10;;;3.70;99.90;;;;;;4968709;28;20432;-72
2023/02/05 03:47:15;;;;;;;9.23;6.50;;;3.70;99.90;;;;;;4965588;28;20985;-72
2023/02/05 03:49:56;;;;;;;14.40;6.50;;;3.70;99.90;;;;;;4970493;28;20486;-72
2023/02/05 03:52:30;;;;;;;9.90;6.60;;;3.60;99.90;;;;;;4965783;28;20439;-72
2023/02/05 03:55:17;;;;;;;10.10;6.60;;;3.70;99.90;;;;;;4972231;28;20434;-72
2023/02/05 03:58:22;;;;;;;14.37;7.10;;;3.60;99.90;;;;;;4977520;28;20452;-72
2023/02/05 04:00:48;;;;;;;7.90;6.50;;;3.50;99.90;;;;;;4964809;28;20889;-72
2023/02/05 04:03:14;;;;;;;11.53;7.30;;;3.50;99.90;;;;;;4972533;28;20475;-72
2023/02/05 04:05:39;;;;;;;13.40;6.83;;;3.40;99.90;;;;;;4972653;28;20315;-72
2023/02/05 04:08:05;;;;;;;12.50;6.93;;;3.40;99.90;;;;;;4970764;28;20546;-72
2023/02/05 04:10:31;;;;;;;18.13;7.13;;;3.30;99.90;;;;;;4972048;28;20184;-72
2023/02/05 04:12:56;;;;;;;11.70;7.20;;;3.30;99.90;;;;;;4970813;28;20231;-72
2023/02/05 04:15:22;;;;;;;12.93;6.57;;;3.20;99.90;;;;;;4972542;28;20691;-72
2023/02/05 04:17:48;;;;;;;13.87;7.77;;;3.30;99.90;;;;;;4972126;28;20219;-72
2023/02/05 04:20:13;;;;;;;13.70;7.20;;;3.20;99.90;;;;;;4969943;28;20467;-72
2023/02/05 04:22:39;;;;;;;9.57;6.50;;;3.20;99.90;;;;;;4971764;28;20208;-72
2023/02/05 04:25:05;;;;;;;10.53;6.67;;;3.10;99.90;;;;;;4973044;28;20184;-72
2023/02/05 04:27:30;;;;;;;9.40;6.13;;;3.10;99.90;;;;;;4971568;28;20180;-72
2023/02/05 04:29:56;;;;;;;10.90;6.93;;;3.00;99.90;;;;;;4969884;28;20810;-72
2023/02/05 04:32:21;;;;;;;10.93;8.67;;;3.00;99.90;;;;;;4971382;28;20259;-72
2023/02/05 04:34:47;;;;;;;12.53;7.60;;;3.00;99.90;;;;;;4972330;28;20191;-72
2023/02/05 04:37:12;;;;;;;14.87;7.73;;;2.90;99.90;;;;;;4971603;28;20263;-72
2023/02/05 04:39:38;;;;;;;11.53;7.10;;;2.90;99.90;;;;;;4970087;28;20602;-72
2023/02/05 04:42:03;;;;;;;12.03;7.00;;;2.90;99.90;;;;;;4972097;28;20192;-72
2023/02/05 04:44:29;;;;;;;9.67;7.00;;;2.90;99.90;;;;;;4971366;28;20180;-72
2023/02/05 04:46:54;;;;;;;14.03;9.37;;;2.80;99.90;;;;;;4972398;28;20187;-72
2023/02/05 04:49:20;;;;;;;11.47;7.00;;;2.80;99.90;;;;;;4970160;28;20295;-72
2023/02/05 04:51:45;;;;;;;11.10;7.53;;;2.70;99.90;;;;;;4969787;28;20586;-72
2023/02/05 04:54:11;;;;;;;8.13;7.33;;;2.70;99.90;;;;;;4970658;28;20180;-72
2023/02/05 04:56:38;;;;;;;10.57;7.60;;;2.60;99.90;;;;;;4970806;28;20200;-72
2023/02/05 04:59:03;;;;;;;10.33;7.20;;;2.60;99.90;;;;;;4971341;28;20208;-72
2023/02/05 05:01:29;;;;;;;14.27;8.33;;;2.60;99.90;;;;;;4970971;28;21019;-72
2023/02/05 05:03:54;;;;;;;13.23;7.80;;;2.60;99.90;;;;;;4969832;28;20208;-72
2023/02/05 05:06:20;;;;;;;12.23;7.90;;;2.60;99.90;;;;;;4980988;28;20181;-73
2023/02/05 05:08:45;;;;;;;12.47;7.43;;;2.50;99.90;;;;;;4974974;28;20222;-72
2023/02/05 05:11:14;;;;;;;13.23;8.27;;;2.60;99.90;;;;;;4976083;28;20181;-72
2023/02/05 05:13:41;;;;;;;14.50;8.50;;;2.60;99.90;;;;;;4975279;28;20438;-72
2023/02/05 05:16:08;;;;;;;15.10;8.37;;;2.60;99.90;;;;;;4962241;28;20440;-73
2023/02/05 05:18:33;;;;;;;15.17;7.80;;;2.70;99.90;;;;;;4962737;28;20447;-72
2023/02/05 05:20:59;;;;;;;11.13;7.17;;;2.80;99.90;;;;;;4969845;28;20489;-72
2023/02/05 05:23:25;;;;;;;12.83;7.90;;;2.80;99.90;;;;;;4975416;28;20474;-72
2023/02/05 05:25:51;;;;;;;14.73;8.37;;;2.90;99.90;;;;;;4975140;28;20431;-72
2023/02/05 05:28:16;;;;;;;11.87;7.50;;;3.00;99.90;;;;;;4974898;28;20196;-72
2023/02/05 05:30:43;;;;;;;8.80;7.07;;;3.10;99.90;;;;;;4969429;28;20669;-72
2023/02/05 05:33:10;;;;;;;14.13;8.20;;;3.10;99.90;;;;;;4975407;28;20666;-72
2023/02/05 05:35:36;;;;;;;11.10;7.80;;;3.10;99.90;;;;;;4974947;28;20481;-72
2023/02/05 05:38:02;;;;;;;14.37;7.30;;;3.10;99.90;;;;;;4974488;28;20530;-72
2023/02/05 05:46:22;;;;;;;13.43;7.50;;;3.20;99.90;;;;;;4972927;28;20430;-71
2023/02/05 05:48:52;;;;;;;9.63;7.87;;;3.20;99.90;;;;;;4972071;28;20452;-71
2023/02/05 05:51:20;;;;;;;11.27;7.47;;;3.30;99.90;;;;;;4972924;28;20436;-71
2023/02/05 05:53:46;;;;;;;9.40;7.50;;;3.30;99.90;;;;;;4974199;28;20443;-71
2023/02/05 05:56:12;;;;;;;16.07;9.10;;;3.20;99.90;;;;;;4974249;28;20825;-71
2023/02/05 05:58:38;;;;;;;14.40;7.97;;;3.10;99.90;;;;;;4972776;28;20207;-71
2023/02/05 06:01:04;;;;;;;12.37;7.23;;;3.10;99.90;;;;;;4974277;28;20431;-71
2023/02/05 06:03:29;;;;;;;17.53;9.20;;;3.00;99.90;;;;;;4964692;28;20220;-71
2023/02/05 06:05:55;;;;;;;14.10;7.90;;;3.00;99.90;;;;;;4974315;28;20431;-71
2023/02/05 06:08:20;;;;;;;15.50;7.40;;;3.10;99.90;;;;;;4972955;28;20208;-71
2023/02/05 06:10:46;;;;;;;15.63;8.80;;;3.10;99.90;;;;;;4974445;28;20191;-71
2023/02/05 06:13:11;;;;;;;11.87;7.33;;;3.00;99.90;;;;;;4973806;28;20185;-71
2023/02/05 06:15:37;;;;;;;15.60;8.63;;;3.00;99.90;;;;;;4971968;28;20674;-71
2023/02/05 06:18:02;;;;;;;11.50;7.27;;;3.00;99.90;;;;;;4974113;28;20214;-71
2023/02/05 06:20:28;;;;;;;15.30;8.87;;;3.10;99.90;;;;;;4974509;28;20231;-71
2023/02/05 06:22:53;;;;;;;13.90;7.17;;;3.10;99.90;;;;;;4985397;28;20206;-71
2023/02/05 06:25:19;;;;;;;15.13;7.80;;;3.10;99.90;;;;;;4976036;28;20204;-71
2023/02/05 06:27:44;;;;;;;11.63;8.10;;;3.10;99.90;;;;;;4973709;28;20272;-71
2023/02/05 06:30:10;;;;;;;14.30;9.57;;;3.10;99.90;;;;;;4972209;28;20185;-71
2023/02/05 06:32:36;;;;;;;16.47;9.20;;;3.20;99.90;;;;;;4967613;28;20262;-70
2023/02/05 06:35:02;;;;;;;13.50;7.80;;;3.20;99.90;;;;;;4973976;28;20824;-70
2023/02/05 06:37:29;;;;;;;13.60;8.77;;;3.10;99.90;;;;;;4973158;28;20199;-70
2023/02/05 06:39:55;;;;;;;15.53;8.60;;;3.30;99.90;;;;;;4973015;28;20455;-71
2023/02/05 06:42:20;;;;;;;9.50;7.93;;;3.30;99.90;;;;;;4981347;28;21175;-71
2023/02/05 06:44:46;;;;;;;9.30;7.30;;;3.20;99.90;;;;;;4974164;28;20613;-71
2023/02/05 06:47:12;;;;;;;13.87;7.47;;;3.20;99.90;;;;;;4973088;28;20817;-71
2023/02/05 06:49:37;;;;;;;17.60;7.50;;;3.20;99.90;;;;;;4971171;28;20289;-71
2023/02/05 06:52:04;;;;;;;13.20;7.90;;;3.20;99.90;;;;;;4982465;28;20219;-71
2023/02/05 06:54:29;;;;;;;9.73;7.30;;;3.20;99.90;;;;;;4972197;28;20184;-70
2023/02/05 06:56:55;;;;;;;17.67;9.00;;;3.20;99.90;;;;;;4974521;28;20827;-70
2023/02/05 06:59:20;;;;;;;16.30;8.80;;;3.30;99.90;;;;;;4972523;28;20219;-70
2023/02/05 07:01:46;;;;;;;12.30;7.90;;;3.40;99.90;;;;;;4973572;28;20187;-70
2023/02/05 07:04:12;;;;;;;11.67;9.47;;;3.40;99.90;;;;;;4972533;28;20184;-71
2023/02/05 07:06:37;;;;;;;16.67;8.70;;;3.40;99.90;;;;;;4973465;28;20177;-70
2023/02/05 07:09:03;;;;;;;14.73;8.07;;;3.40;99.90;;;;;;4971579;28;20227;-70
2023/02/05 07:11:29;;;;;;;11.03;7.67;;;3.40;99.90;;;;;;4971816;28;20650;-71
2023/02/05 07:13:54;;;;;;;12.47;8.50;;;3.50;99.90;;;;;;4971703;28;20180;-71
2023/02/05 07:16:20;;;;;;;15.70;8.80;;;3.60;99.90;;;;;;4973016;28;20654;-71
2023/02/05 07:18:45;;;;;;;15.70;7.27;;;3.70;99.90;;;;;;4970034;28;20235;-70
2023/02/05 07:21:14;;;;;;;10.37;7.77;;;3.70;99.90;;;;;;4973355;28;20245;-70
2023/02/05 07:23:40;;;;;;;10.90;7.13;;;3.60;99.90;;;;;;4972688;28;20263;-71
2023/02/05 07:26:12;;;;;;;11.10;8.50;;;3.70;99.90;;;;;;4973212;28;20435;-71
2023/02/05 07:28:37;;;;;;;16.00;10.00;;;3.70;99.90;;;;;;4971357;28;20603;-70
2023/02/05 07:31:09;;;;;;;14.37;10.47;;;3.70;99.90;;;;;;4971410;28;20949;-71
2023/02/05 07:33:35;;;;;;;15.20;8.47;;;3.70;99.90;;;;;;4970793;28;20180;-71
2023/02/05 07:36:05;;;;;;;15.67;10.10;;;3.80;99.90;;;;;;4970847;28;20937;-71
2023/02/05 07:38:31;;;;;;;13.80;9.20;;;3.80;99.90;;;;;;4971187;28;20498;-71
2023/02/05 07:40:57;;;;;;;15.30;8.83;;;3.90;99.90;;;;;;4972766;28;20526;-71
2023/02/05 07:43:23;;;;;;;16.63;10.10;;;3.90;99.90;;;;;;4972001;28;20277;-71
2023/02/05 07:45:59;;;;;;;17.43;12.27;;;3.90;99.90;;;;;;4970693;28;20525;-71
2023/02/05 07:48:25;;;;;;;14.30;10.70;;;3.80;99.90;;;;;;4971391;28;20545;-71
2023/02/05 07:50:51;;;;;;;16.63;11.07;;;3.80;99.90;;;;;;4971946;28;20594;-70
2023/02/05 07:53:16;;;;;;;16.40;12.20;;;3.70;99.90;;;;;;4972216;28;20180;-71
2023/02/05 07:55:42;;;;;;;17.60;12.30;;;3.80;99.90;;;;;;4970672;28;20199;-71
2023/02/05 07:58:07;;;;;;;16.67;9.20;;;3.80;99.90;;;;;;4970530;28;20204;-71
2023/02/05 08:00:33;;;;;;;16.93;10.03;;;3.90;99.90;;;;;;4972019;28;20263;-71
2023/02/05 08:02:59;;;;;;;13.30;9.70;;;3.90;99.90;;;;;;4972533;28;20211;-70
2023/02/05 08:05:25;;;;;;;14.97;8.37;;;4.00;99.90;;;;;;4972488;28;20516;-71
2023/02/05 08:07:50;;;;;;;14.00;8.50;;;4.10;99.90;;;;;;4971207;28;20263;-71
2023/02/05 08:10:16;;;;;;;11.57;7.77;;;3.90;99.90;;;;;;4970884;28;20219;-70
2023/02/05 08:12:41;;;;;;;11.53;8.20;;;3.80;99.90;;;;;;4971789;28;20259;-70
2023/02/05 08:15:07;;;;;;;10.00;8.17;;;3.70;99.90;;;;;;4968226;28;20187;-70
2023/02/05 08:17:33;;;;;;;11.47;7.97;;;3.70;99.90;;;;;;4971711;28;20180;-71
2023/02/05 08:20:05;;;;;;;11.77;8.03;;;3.70;99.90;;;;;;4970833;28;20543;-71
2023/02/05 08:22:35;;;;;;;11.77;8.17;;;3.80;99.90;;;;;;4971976;28;20251;-71
2023/02/05 08:25:00;;;;;;;15.27;8.57;;;3.80;99.90;;;;;;4969534;28;20953;-71
2023/02/05 08:27:26;;;;;;;16.33;8.43;;;3.80;99.90;;;;;;4971440;28;20431;-71
2023/02/05 08:29:52;;;;;;;16.50;9.83;;;3.80;99.90;;;;;;4976221;28;20866;-71
2023/02/05 08:32:18;;;;;;;14.20;8.53;;;3.80;99.90;;;;;;4973555;28;20794;-70
2023/02/05 08:34:43;;;;;;;23.40;8.13;;;3.80;99.90;;;;;;4970484;28;20180;-70
2023/02/05 08:37:09;;;;;;;13.87;8.70;;;3.80;99.90;;;;;;4970825;28;20208;-71
2023/02/05 08:39:36;;;;;;;13.03;8.20;;;3.90;99.90;;;;;;4972168;28;20629;-70
2023/02/05 08:42:02;;;;;;;14.43;9.80;;;3.90;99.90;;;;;;4973577;28;20840;-70
2023/02/05 08:44:27;;;;;;;12.40;8.90;;;3.90;99.90;;;;;;4975746;28;20486;-70
2023/02/05 08:46:53;;;;;;;13.50;10.03;;;4.10;99.90;;;;;;4974176;28;20176;-70
2023/02/05 08:49:19;;;;;;;13.30;9.30;;;4.10;99.90;;;;;;4973610;28;20200;-70
2023/02/05 08:51:44;;;;;;;15.00;8.67;;;4.20;99.90;;;;;;4975085;28;20658;-70
2023/02/05 08:54:12;;;;;;;20.63;9.37;;;4.30;99.90;;;;;;4972977;28;20487;-70
2023/02/05 08:56:39;;;;;;;12.60;9.57;;;4.30;99.90;;;;;;4966085;28;20207;-70
2023/02/05 08:59:05;;;;;;;12.90;8.10;;;4.30;99.90;;;;;;4947605;28;20515;-71
2023/02/05 09:01:30;;;;;;;14.00;11.43;;;4.40;99.90;;;;;;4969365;28;20530;-70
2023/02/05 09:03:56;;;;;;;14.17;9.33;;;4.50;99.90;;;;;;4975413;28;20267;-70
2023/02/05 09:06:21;;;;;;;14.07;9.43;;;4.60;99.90;;;;;;4973347;28;20180;-70
2023/02/05 09:08:47;;;;;;;15.63;8.60;;;4.70;99.90;;;;;;4970749;28;20303;-73
2023/02/05 09:11:13;;;;;;;11.13;8.10;;;4.70;99.90;;;;;;4972793;28;20590;-70
2023/02/05 09:13:39;;;;;;;13.47;10.00;;;4.80;99.90;;;;;;4974101;28;20180;-70
2023/02/05 09:16:04;;;;;;;13.17;8.80;;;4.90;99.90;;;;;;4974559;28;20177;-70
2023/02/05 09:18:30;;;;;;;11.60;8.67;;;4.90;99.90;;;;;;4970866;28;20474;-70
2023/02/05 09:20:56;;;;;;;13.07;8.43;;;4.90;99.90;;;;;;4973641;28;20239;-70
2023/02/05 09:23:21;;;;;;;13.57;8.60;;;5.00;99.90;;;;;;4972440;28;20460;-70
2023/02/05 09:25:48;;;;;;;25.33;16.10;;;5.10;99.90;;;;;;4974345;28;20191;-70
2023/02/05 09:28:14;;;;;;;17.17;12.33;;;4.90;99.90;;;;;;4970783;28;20674;-70
2023/02/05 09:30:42;;;;;;;13.63;9.00;;;4.80;99.90;;;;;;4975796;28;20539;-70
2023/02/05 09:33:08;;;;;;;18.40;12.50;;;4.70;99.90;;;;;;4973637;28;20450;-70
2023/02/05 09:35:34;;;;;;;14.17;8.23;;;4.80;99.90;;;;;;4973605;28;21912;-70
2023/02/05 09:38:02;;;;;;;17.10;8.10;;;4.70;99.90;;;;;;4970089;28;20542;-70
2023/02/05 09:40:34;;;;;;;12.60;7.70;;;4.50;99.90;;;;;;4974149;28;20497;-70
2023/02/05 09:43:22;;;;;;;14.70;9.53;;;4.40;99.90;;;;;;4970513;28;20502;-70
2023/02/05 09:46:00;;;;;;;8.83;6.80;;;4.30;99.90;;;;;;4970439;28;20438;-70
2023/02/05 09:48:58;;;;;;;12.70;7.00;;;4.20;99.90;;;;;;4966968;28;20998;-70
2023/02/05 09:51:33;;;;;;;9.40;7.67;;;4.10;99.90;;;;;;4971357;28;21851;-70
2023/02/05 09:54:15;;;;;;;11.73;7.73;;;4.10;99.90;;;;;;4973099;28;20445;-69
2023/02/05 09:56:46;;;;;;;14.60;7.10;;;4.10;99.90;;;;;;4971964;28;20806;-70
2023/02/05 09:59:22;;;;;;;18.00;8.30;;;4.20;99.90;;;;;;4972829;28;20881;-70
2023/02/05 10:01:56;;;;;;;18.40;8.53;;;4.30;99.90;;;;;;4973831;28;20431;-70
2023/02/05 10:04:23;;;;;;;18.40;8.50;;;4.30;99.90;;;;;;4974523;28;20440;-70
2023/02/05 10:07:11;;;;;;;12.80;9.40;;;4.30;99.90;;;;;;4970074;28;20555;-70
2023/02/05 10:09:42;;;;;;;12.37;8.60;;;4.40;99.90;;;;;;4972839;28;20463;-70
2023/02/05 10:12:25;;;;;;;10.40;7.70;;;4.50;99.90;;;;;;4972777;28;20462;-71
2023/02/05 10:15:11;;;;;;;12.67;8.13;;;4.50;99.90;;;;;;4970639;28;20448;-70
2023/02/05 10:17:55;;;;;;;9.33;7.50;;;4.50;99.90;;;;;;4969102;28;20804;-70
2023/02/05 10:20:29;;;;;;;14.07;9.63;;;4.50;99.90;;;;;;4972988;28;20470;-70
2023/02/05 10:23:18;;;;;;;16.33;8.20;;;4.50;99.90;;;;;;4970442;28;20521;-70
2023/02/05 10:26:17;;;;;;;15.70;9.20;;;4.60;99.90;;;;;;4972541;28;20466;-71
2023/02/05 10:29:14;;;;;;;14.50;7.63;;;4.60;99.90;;;;;;4967147;28;21166;-69
2023/02/05 10:31:42;;;;;;;11.10;7.90;;;4.60;99.90;;;;;;4971620;28;20436;-70
2023/02/05 10:34:30;;;;;;;14.77;7.33;;;4.80;99.90;;;;;;4972316;28;20440;-70
2023/02/05 10:36:55;;;;;;;10.37;7.50;;;4.70;99.90;;;;;;4968658;28;20438;-70
2023/02/05 10:39:27;;;;;;;12.77;8.13;;;4.70;99.90;;;;;;4973639;28;20458;-72
2023/02/05 10:42:00;;;;;;;18.40;8.57;;;4.70;99.90;;;;;;4969929;28;20187;-70
2023/02/05 10:44:36;;;;;;;13.53;7.60;;;4.70;99.90;;;;;;4972192;28;20538;-69
2023/02/05 10:47:11;;;;;;;11.60;8.20;;;4.80;99.90;;;;;;4964087;28;20449;-69
2023/02/05 10:49:55;;;;;;;14.20;7.83;;;4.80;99.90;;;;;;4972117;28;20458;-70
2023/02/05 10:52:20;;;;;;;17.63;9.63;;;5.00;99.90;;;;;;4972169;28;20443;-70
2023/02/05 10:54:46;;;;;;;16.93;8.47;;;5.10;99.90;;;;;;4972764;28;20447;-69
2023/02/05 10:57:15;;;;;;;14.33;10.63;;;5.10;99.90;;;;;;4969179;28;20192;-70
2023/02/05 10:59:52;;;;;;;15.90;8.63;;;5.20;99.90;;;;;;4972884;28;20482;-70
2023/02/05 11:02:19;;;;;;;16.17;9.97;;;5.10;99.90;;;;;;4969384;28;20478;-69
2023/02/05 11:04:50;;;;;;;13.40;8.20;;;5.10;99.90;;;;;;4972556;28;20443;-70
2023/02/05 11:07:33;;;;;;;12.90;8.50;;;5.20;99.90;;;;;;4970522;28;20555;-69
2023/02/05 11:10:15;;;;;;;13.30;7.97;;;5.10;99.90;;;;;;4965149;28;21007;-69
2023/02/05 11:12:44;;;;;;;17.93;9.13;;;5.10;99.90;;;;;;4973019;28;20513;-69
2023/02/05 11:15:25;;;;;;;14.07;8.47;;;5.10;99.90;;;;;;4972508;28;20447;-70
2023/02/05 11:18:12;;;;;;;14.50;11.20;;;5.10;99.90;;;;;;4968669;28;20435;-70
2023/02/05 11:20:38;;;;;;;12.47;9.40;;;5.10;99.90;;;;;;4970591;28;20451;-70
2023/02/05 11:23:25;;;;;;;10.57;8.43;;;5.10;99.90;;;;;;4973194;28;20474;-70
2023/02/05 11:25:54;;;;;;;12.17;9.00;;;5.20;99.90;;;;;;4972383;28;20491;-70
2023/02/05 11:28:31;;;;;;;17.10;11.03;;;5.20;99.90;;;;;;4969280;28;20603;-70
2023/02/05 11:31:17;;;;;;;18.53;10.50;;;5.10;99.90;;;;;;4969754;28;20526;-70
2023/02/05 11:33:43;;;;;;;17.63;9.50;;;5.00;99.90;;;;;;4971246;28;20874;-70
2023/02/05 11:36:16;;;;;;;14.13;10.00;;;5.10;99.90;;;;;;4969332;28;20514;-70
2023/02/05 11:38:52;;;;;;;19.13;10.30;;;5.20;99.90;;;;;;4968447;28;20202;-72
2023/02/05 11:41:26;;;;;;;13.30;8.77;;;5.20;99.90;;;;;;4972828;28;20446;-70
2023/02/05 11:43:53;;;;;;;25.07;10.50;;;5.30;99.90;;;;;;4967721;28;20517;-69
2023/02/05 11:46:22;;;;;;;16.30;8.40;;;5.30;99.90;;;;;;4976359;28;20474;-70
2023/02/05 11:49:01;;;;;;;21.77;10.50;;;5.20;99.90;;;;;;4966486;28;20448;-69
2023/02/05 11:51:34;;;;;;;17.80;11.03;;;5.20;99.90;;;;;;4969831;28;20431;-69
2023/02/05 11:54:04;;;;;;;16.80;9.77;;;5.20;99.90;;;;;;4965650;28;20971;-69
2023/02/05 11:56:30;;;;;;;12.10;8.63;;;5.30;99.90;;;;;;4970999;28;20546;-69
2023/02/05 11:59:20;;;;;;;14.40;8.47;;;5.30;99.90;;;;;;4968019;28;20550;-69
2023/02/05 12:01:46;;;;;;;15.07;8.70;;;5.30;99.90;;;;;;4971143;28;20196;-69
2023/02/05 12:04:12;;;;;;;20.10;10.00;;;5.30;99.90;;;;;;4973900;28;21080;-69
2023/02/05 12:07:01;;;;;;;14.67;9.27;;;5.40;99.90;;;;;;4971068;28;20561;-69
2023/02/05 12:09:26;;;;;;;14.67;9.30;;;5.40;99.90;;;;;;4970841;28;20207;-70
2023/02/05 12:12:05;;;;;;;16.60;9.50;;;5.40;99.90;;;;;;4975641;28;20443;-69
2023/02/05 12:14:45;;;;;;;11.67;8.17;;;5.40;99.90;;;;;;4973644;28;20183;-70
2023/02/05 12:17:23;;;;;;;13.30;9.43;;;5.40;99.90;;;;;;4970841;28;20431;-70
2023/02/05 12:20:22;;;;;;;16.00;8.50;;;5.40;99.90;;;;;;4970066;28;20543;-70
2023/02/05 12:23:13;;;;;;;15.20;9.77;;;5.50;99.90;;;;;;4971161;28;20455;-71
2023/02/05 12:25:38;;;;;;;15.73;10.10;;;5.50;99.90;;;;;;4971366;28;20434;-69
2023/02/05 12:28:31;;;;;;;20.77;10.63;;;5.40;99.90;;;;;;4969125;28;20486;-70
2023/02/05 12:31:15;;;;;;;13.40;10.10;;;5.40;99.90;;;;;;4967728;28;20275;-68
2023/02/05 12:34:23;;;;;;;15.13;8.20;;;5.40;99.90;;;;;;4969524;28;20969;-70
2023/02/05 12:37:17;;;;;;;18.47;9.13;;;5.50;99.90;;;;;;4968226;28;20454;-70
2023/02/05 12:39:52;;;;;;;13.80;9.17;;;5.50;99.90;;;;;;4971719;28;20999;-71
2023/02/05 12:42:30;;;;;;;15.10;9.87;;;5.60;99.90;;;;;;4970850;28;20461;-70
2023/02/05 12:45:14;;;;;;;15.97;10.10;;;5.60;99.90;;;;;;4965397;28;20858;-69
2023/02/05 12:48:08;;;;;;;14.40;8.60;;;5.60;99.90;;;;;;4967373;28;20439;-68
2023/02/05 12:50:36;;;;;;;14.60;9.47;;;5.60;99.90;;;;;;4968057;28;20811;-68
2023/02/05 12:53:13;;;;;;;12.07;9.10;;;5.50;99.90;;;;;;4971379;28;20767;-68
2023/02/05 12:55:58;;;;;;;11.67;8.50;;;5.50;99.90;;;;;;4970740;28;20458;-71
2023/02/05 12:58:33;;;;;;;10.60;7.57;;;5.50;99.90;;;;;;4965143;28;20991;-70
2023/02/05 13:01:05;;;;;;;10.00;7.27;;;5.50;99.90;;;;;;4963235;28;20956;-70
2023/02/05 13:03:37;;;;;;;9.20;6.60;;;5.40;99.90;;;;;;4970702;28;20546;-70
2023/02/05 13:06:20;;;;;;;7.37;6.63;;;5.40;99.90;;;;;;4971561;28;20501;-69
2023/02/05 13:08:54;;;;;;;12.30;7.33;;;5.40;99.90;;;;;;4967723;28;21000;-70